Time;durP1;ratioP1;P1;durP2;ratioP2;P2;SDS_P1;SDS_P2;PMS_P1;PMS_P2;Temp;Humidity;BMP_temperature;BMP_pressure;BME280_temperature;BME280_humidity;BME280_pressure;Samples;Min_cycle;Max_cycle;Signal;HPM_P1;HPM_P2
2021/10/02 00:34:59;;;;;;;6.67;5.20;;;13.40;99.90;;;;;;5075013;28;20217;-66
2021/10/02 00:37:35;;;;;;;6.70;4.70;;;13.40;99.90;;;;;;5076557;28;20216;-66
2021/10/02 00:45:40;;;;;;;8.23;4.83;;;13.20;99.90;;;;;;5077325;28;20664;-65
2021/10/02 00:48:09;;;;;;;5.93;4.80;;;13.10;99.90;;;;;;5076783;28;20213;-64
2021/10/02 00:50:36;;;;;;;5.80;4.73;;;13.10;99.90;;;;;;5077512;28;20216;-64
2021/10/02 00:53:03;;;;;;;6.03;5.10;;;13.00;99.90;;;;;;5076987;28;20211;-65
2021/10/02 00:55:30;;;;;;;6.60;5.27;;;13.00;99.90;;;;;;5076878;28;20201;-64
2021/10/02 00:57:57;;;;;;;6.57;4.67;;;13.00;99.90;;;;;;5077016;28;20204;-65
2021/10/02 01:00:25;;;;;;;7.00;5.37;;;12.90;99.90;;;;;;5075998;28;20681;-65
2021/10/02 01:02:54;;;;;;;9.00;5.13;;;12.90;99.90;;;;;;5075844;28;20611;-63
2021/10/02 01:05:57;;;;;;;7.07;4.90;;;12.90;99.90;;;;;;5075139;28;20216;-65
2021/10/02 01:08:35;;;;;;;5.67;4.80;;;12.90;99.90;;;;;;5074834;28;20615;-63
2021/10/02 01:11:19;;;;;;;7.67;5.40;;;12.90;99.90;;;;;;5075144;28;20299;-65
2021/10/02 01:13:59;;;;;;;5.87;4.80;;;12.80;99.90;;;;;;5073300;28;20237;-65
2021/10/02 01:16:31;;;;;;;6.67;5.07;;;12.90;99.90;;;;;;5073459;28;20236;-65
2021/10/02 01:19:10;;;;;;;6.50;5.33;;;12.90;99.90;;;;;;5073202;28;20256;-65
2021/10/02 01:21:53;;;;;;;6.07;5.40;;;12.90;99.90;;;;;;5073275;28;20216;-64
2021/10/02 01:24:30;;;;;;;5.73;5.07;;;13.00;99.90;;;;;;5073069;28;20595;-65
2021/10/02 01:27:18;;;;;;;5.87;5.20;;;13.00;99.90;;;;;;5073285;28;20266;-63
2021/10/02 01:29:48;;;;;;;7.07;5.23;;;13.00;99.90;;;;;;5073159;28;20189;-65
2021/10/02 01:32:20;;;;;;;5.67;4.87;;;13.00;99.90;;;;;;5072832;28;20205;-65
2021/10/02 01:35:02;;;;;;;7.20;4.90;;;13.00;99.90;;;;;;5072789;28;20270;-64
2021/10/02 01:37:43;;;;;;;6.83;4.80;;;13.00;99.90;;;;;;5073112;28;20204;-65
2021/10/02 01:48:39;;;;;;;8.57;5.00;;;13.10;99.90;;;;;;5073051;28;20204;-63
2021/10/02 01:51:08;;;;;;;8.87;4.90;;;13.00;99.90;;;;;;5073016;28;20209;-65
2021/10/02 01:53:37;;;;;;;5.93;4.13;;;13.00;99.90;;;;;;5072150;28;20270;-68
2021/10/02 01:56:05;;;;;;;6.23;4.83;;;13.00;99.90;;;;;;5079403;28;20227;-65
2021/10/02 01:58:33;;;;;;;7.13;5.10;;;12.90;99.90;;;;;;5073403;28;20209;-65
2021/10/02 02:01:03;;;;;;;6.13;4.67;;;12.80;99.90;;;;;;5073206;28;20209;-66
2021/10/02 02:03:33;;;;;;;7.30;4.47;;;12.80;99.90;;;;;;5072589;28;20237;-66
2021/10/02 02:06:01;;;;;;;7.87;4.63;;;12.90;99.90;;;;;;5073174;28;20291;-65
2021/10/02 02:08:29;;;;;;;5.50;4.50;;;12.90;99.90;;;;;;5072950;28;20213;-65
2021/10/02 02:10:57;;;;;;;8.47;4.77;;;12.90;99.90;;;;;;5073551;28;20205;-66
2021/10/02 02:13:26;;;;;;;7.43;4.77;;;12.90;99.90;;;;;;5073320;28;20279;-65
2021/10/02 02:15:54;;;;;;;7.47;5.17;;;12.80;99.90;;;;;;5073354;28;20208;-64
2021/10/02 02:18:24;;;;;;;5.50;4.67;;;12.80;99.90;;;;;;5074490;28;20204;-65
2021/10/02 02:20:56;;;;;;;7.03;4.53;;;12.80;99.90;;;;;;5074325;28;20208;-64
2021/10/02 02:23:25;;;;;;;5.60;4.67;;;12.80;99.90;;;;;;5076101;28;20256;-65
2021/10/02 02:25:52;;;;;;;7.77;4.70;;;12.80;99.90;;;;;;5074527;28;20685;-64
2021/10/02 02:28:21;;;;;;;5.83;4.90;;;12.80;99.90;;;;;;5073007;28;20646;-64
2021/10/02 02:30:49;;;;;;;6.77;5.20;;;12.90;99.90;;;;;;5072772;28;20239;-64
2021/10/02 02:33:16;;;;;;;6.60;4.93;;;12.90;99.90;;;;;;5072779;28;20225;-64
2021/10/02 02:35:45;;;;;;;7.30;6.10;;;12.90;99.90;;;;;;5072481;28;20232;-64
2021/10/02 02:38:12;;;;;;;8.20;5.30;;;12.90;99.90;;;;;;5072465;28;20200;-65
2021/10/02 02:40:39;;;;;;;8.00;5.20;;;12.90;99.90;;;;;;5073258;28;20245;-65
2021/10/02 02:43:08;;;;;;;8.37;5.30;;;12.90;99.90;;;;;;5073513;28;20204;-65
2021/10/02 02:45:35;;;;;;;7.17;5.23;;;12.90;99.90;;;;;;5073489;28;20229;-66
2021/10/02 02:48:05;;;;;;;6.27;5.23;;;13.00;99.90;;;;;;5072876;28;20232;-65
2021/10/02 02:50:36;;;;;;;7.80;4.90;;;13.00;99.90;;;;;;5073011;28;20205;-65
2021/10/02 02:53:10;;;;;;;5.67;4.60;;;13.00;99.90;;;;;;5073269;28;20205;-66
2021/10/02 02:55:49;;;;;;;6.97;4.70;;;13.10;99.90;;;;;;5073170;28;20258;-64
2021/10/02 02:58:19;;;;;;;6.37;4.93;;;13.10;99.90;;;;;;5072720;28;20723;-65
2021/10/02 03:00:54;;;;;;;7.40;4.60;;;13.10;99.90;;;;;;5073353;28;20209;-66
2021/10/02 03:03:25;;;;;;;6.07;4.83;;;13.10;99.90;;;;;;5072799;28;20707;-65
2021/10/02 03:05:55;;;;;;;7.30;4.47;;;13.20;99.90;;;;;;5073245;28;20613;-65
2021/10/02 03:08:25;;;;;;;5.60;4.53;;;13.20;99.90;;;;;;5072803;28;20205;-65
2021/10/02 03:10:59;;;;;;;6.00;4.53;;;13.20;99.90;;;;;;5072459;28;20628;-64
2021/10/02 03:13:27;;;;;;;6.03;4.97;;;13.20;99.90;;;;;;5071449;28;20225;-64
2021/10/02 03:15:55;;;;;;;6.07;4.80;;;13.20;99.90;;;;;;5071743;28;20255;-64
2021/10/02 03:18:22;;;;;;;8.57;4.97;;;13.20;99.90;;;;;;5072502;28;20201;-65
2021/10/02 03:20:50;;;;;;;6.40;4.73;;;13.20;99.90;;;;;;5073066;28;20208;-65
2021/10/02 03:23:19;;;;;;;8.07;4.40;;;13.30;99.90;;;;;;5072450;28;21138;-65
2021/10/02 03:25:48;;;;;;;7.57;4.83;;;13.30;99.90;;;;;;5072542;28;20232;-65
2021/10/02 03:28:15;;;;;;;9.17;4.97;;;13.30;99.90;;;;;;5071802;28;20672;-65
2021/10/02 03:30:43;;;;;;;7.30;4.87;;;13.30;99.90;;;;;;5072011;28;20201;-63
2021/10/02 03:33:10;;;;;;;5.50;4.80;;;13.30;99.90;;;;;;5074930;28;20209;-65
2021/10/02 03:35:37;;;;;;;6.53;4.60;;;13.30;99.90;;;;;;5075602;28;20205;-68
2021/10/02 03:38:04;;;;;;;6.83;4.93;;;13.40;99.90;;;;;;5075547;28;20589;-65
2021/10/02 03:40:32;;;;;;;8.67;4.50;;;13.30;99.90;;;;;;5075238;28;20212;-65
2021/10/02 03:43:00;;;;;;;5.43;4.90;;;13.40;99.90;;;;;;5075429;28;20205;-65
2021/10/02 03:45:28;;;;;;;7.17;4.70;;;13.40;99.90;;;;;;5075442;28;20232;-64
2021/10/02 03:47:56;;;;;;;6.17;4.73;;;13.30;99.90;;;;;;5075763;28;20204;-65
2021/10/02 03:50:23;;;;;;;6.37;4.80;;;13.30;99.90;;;;;;5075738;28;20266;-65
2021/10/02 03:52:49;;;;;;;6.13;4.30;;;13.30;99.90;;;;;;5075510;28;20204;-65
2021/10/02 03:55:17;;;;;;;5.93;4.67;;;13.30;99.90;;;;;;5075399;28;20282;-65
2021/10/02 03:57:44;;;;;;;7.47;4.77;;;13.40;99.90;;;;;;5075621;28;20205;-63
2021/10/02 04:00:14;;;;;;;5.87;4.67;;;13.40;99.90;;;;;;5075671;28;20270;-65
2021/10/02 04:02:40;;;;;;;6.73;4.87;;;13.50;99.90;;;;;;5075486;28;20212;-66
2021/10/02 04:05:08;;;;;;;7.40;4.57;;;13.60;99.90;;;;;;5075560;28;20696;-65
2021/10/02 04:07:35;;;;;;;6.53;4.80;;;13.50;99.90;;;;;;5076459;28;20205;-65
2021/10/02 04:10:03;;;;;;;6.53;5.23;;;13.60;99.90;;;;;;5075958;28;20615;-64
2021/10/02 04:12:30;;;;;;;7.70;4.80;;;13.60;99.90;;;;;;5075581;28;20209;-65
2021/10/02 04:14:57;;;;;;;7.20;4.60;;;13.60;99.90;;;;;;5075387;28;20224;-65
2021/10/02 04:17:25;;;;;;;7.63;4.93;;;13.60;99.90;;;;;;5074635;28;20684;-66
2021/10/02 04:19:51;;;;;;;5.67;4.67;;;13.60;99.90;;;;;;5074757;28;20321;-65
2021/10/02 04:22:18;;;;;;;7.67;4.37;;;13.60;99.90;;;;;;5074398;28;20212;-66
2021/10/02 04:24:45;;;;;;;6.27;4.63;;;13.50;99.90;;;;;;5073773;28;20229;-65
2021/10/02 04:27:12;;;;;;;6.43;4.80;;;13.50;99.90;;;;;;5074250;28;20251;-65
2021/10/02 04:29:38;;;;;;;9.93;4.70;;;13.40;99.90;;;;;;5073702;28;20209;-66
2021/10/02 04:32:06;;;;;;;7.10;4.80;;;13.40;99.90;;;;;;5074063;28;20213;-63
2021/10/02 04:34:34;;;;;;;6.53;5.30;;;13.30;99.90;;;;;;5074306;28;20225;-66
2021/10/02 04:37:01;;;;;;;6.33;5.13;;;13.20;99.90;;;;;;5074611;28;20212;-66
2021/10/02 04:39:28;;;;;;;7.03;4.60;;;13.30;99.90;;;;;;5074428;28;20205;-65
2021/10/02 04:41:55;;;;;;;5.67;4.87;;;13.30;99.90;;;;;;5073995;28;20209;-66
2021/10/02 04:44:22;;;;;;;5.57;4.67;;;13.20;99.90;;;;;;5073724;28;20229;-65
2021/10/02 04:46:49;;;;;;;8.77;5.17;;;13.20;99.90;;;;;;5074778;28;20208;-66
2021/10/02 04:49:16;;;;;;;6.37;4.77;;;13.20;99.90;;;;;;5074093;28;20673;-65
2021/10/02 04:51:44;;;;;;;5.57;4.50;;;13.30;99.90;;;;;;5074114;28;20215;-65
2021/10/02 04:54:12;;;;;;;7.23;5.43;;;13.30;99.90;;;;;;5074521;28;20278;-65
2021/10/02 04:56:39;;;;;;;5.20;4.70;;;13.30;99.90;;;;;;5074218;28;20213;-65
2021/10/02 04:59:06;;;;;;;7.33;4.90;;;13.30;99.90;;;;;;5073779;28;20205;-65
2021/10/02 05:01:33;;;;;;;6.50;4.90;;;13.30;99.90;;;;;;5075715;28;20209;-64
2021/10/02 05:04:01;;;;;;;5.80;4.77;;;13.30;99.90;;;;;;5074868;28;20228;-65
2021/10/02 05:06:28;;;;;;;6.00;4.70;;;13.30;99.90;;;;;;5074402;28;20288;-64
2021/10/02 05:08:56;;;;;;;6.50;5.57;;;13.30;99.90;;;;;;5074373;28;20228;-65
2021/10/02 05:11:23;;;;;;;9.30;4.97;;;13.30;99.90;;;;;;5074406;28;20212;-65
2021/10/02 05:13:50;;;;;;;5.73;5.00;;;13.30;99.90;;;;;;5074077;28;20224;-65
2021/10/02 05:16:17;;;;;;;6.77;4.53;;;13.30;99.90;;;;;;5074227;28;20209;-65
2021/10/02 05:18:43;;;;;;;6.27;4.70;;;13.30;99.90;;;;;;5073767;28;20209;-65
2021/10/02 05:21:10;;;;;;;6.03;5.20;;;13.20;99.90;;;;;;5074166;28;20785;-65
2021/10/02 05:23:37;;;;;;;5.90;4.80;;;13.20;99.90;;;;;;5074262;28;20229;-64
2021/10/02 05:26:05;;;;;;;9.83;5.33;;;13.20;99.90;;;;;;5073992;28;20228;-65
2021/10/02 05:28:32;;;;;;;6.17;5.40;;;13.10;99.90;;;;;;5073557;28;20205;-65
2021/10/02 05:30:58;;;;;;;6.20;5.50;;;13.10;99.90;;;;;;5073416;28;20208;-64
2021/10/02 05:33:25;;;;;;;8.90;5.80;;;13.10;99.90;;;;;;5073940;28;20235;-65
2021/10/02 05:35:53;;;;;;;7.90;6.10;;;13.00;99.90;;;;;;5073326;28;20570;-66
2021/10/02 05:38:21;;;;;;;9.43;6.10;;;13.10;99.90;;;;;;5073286;28;20669;-67
2021/10/02 05:40:48;;;;;;;9.40;6.30;;;13.20;99.90;;;;;;5073470;28;20270;-64
2021/10/02 05:43:16;;;;;;;10.57;6.47;;;13.20;99.90;;;;;;5072308;28;20251;-63
2021/10/02 05:45:43;;;;;;;7.40;6.33;;;13.20;99.90;;;;;;5071978;28;20704;-64
2021/10/02 05:48:10;;;;;;;11.40;7.13;;;13.30;99.90;;;;;;5071877;28;20364;-63
2021/10/02 05:50:38;;;;;;;7.43;5.73;;;13.40;99.90;;;;;;5071775;28;20204;-63
2021/10/02 05:53:05;;;;;;;7.27;5.90;;;13.50;99.90;;;;;;5071735;28;20208;-64
2021/10/02 05:55:32;;;;;;;8.07;5.03;;;13.60;99.90;;;;;;5071250;28;20201;-63
2021/10/02 05:57:59;;;;;;;7.93;5.00;;;13.70;99.90;;;;;;5071685;28;20266;-63
2021/10/02 06:00:27;;;;;;;6.60;4.80;;;13.80;99.90;;;;;;5072180;28;20205;-64
2021/10/02 06:02:56;;;;;;;5.90;4.63;;;13.90;99.90;;;;;;5072209;28;20273;-64
2021/10/02 06:05:26;;;;;;;6.20;4.57;;;13.80;99.90;;;;;;5071789;28;20217;-65
2021/10/02 06:07:53;;;;;;;5.97;4.90;;;13.90;99.90;;;;;;5071851;28;20208;-64
2021/10/02 06:10:20;;;;;;;6.57;4.67;;;14.20;99.90;;;;;;5072699;28;20212;-64
2021/10/02 06:12:46;;;;;;;6.33;4.43;;;14.40;99.90;;;;;;5072449;28;20254;-64
2021/10/02 06:15:14;;;;;;;6.30;4.30;;;14.40;99.90;;;;;;5071878;28;20220;-64
2021/10/02 06:17:42;;;;;;;5.93;4.73;;;14.60;99.90;;;;;;5071979;28;20215;-64
2021/10/02 06:20:09;;;;;;;7.00;4.83;;;14.60;99.90;;;;;;5072388;28;20668;-64
2021/10/02 06:22:36;;;;;;;5.80;4.87;;;14.80;99.90;;;;;;5072370;28;20209;-65
2021/10/02 06:25:03;;;;;;;5.30;4.20;;;15.20;99.90;;;;;;5072533;28;20236;-64
2021/10/02 06:27:32;;;;;;;6.63;5.07;;;16.40;99.90;;;;;;5072306;28;20213;-64
2021/10/02 06:29:59;;;;;;;5.30;4.20;;;17.80;99.90;;;;;;5071915;28;20258;-65
2021/10/02 06:32:26;;;;;;;6.35;4.38;;;19.10;99.90;;;;;;5072607;28;20208;-64
2021/10/02 06:34:54;;;;;;;6.07;4.38;;;19.70;99.90;;;;;;5072285;28;20228;-64
2021/10/02 06:37:21;;;;;;;6.22;4.70;;;19.50;99.90;;;;;;5071904;28;20209;-65
2021/10/02 06:39:47;;;;;;;7.22;4.25;;;19.10;99.90;;;;;;5071786;28;20481;-65
2021/10/02 06:42:14;;;;;;;6.65;5.00;;;18.60;99.90;;;;;;5073439;28;20228;-65
2021/10/02 06:44:41;;;;;;;9.50;4.50;;;18.20;99.90;;;;;;5071774;28;20237;-64
2021/10/02 06:47:08;;;;;;;5.73;4.40;;;17.80;99.90;;;;;;5071832;28;20212;-64
2021/10/02 06:49:35;;;;;;;8.33;5.43;;;17.60;99.90;;;;;;5071806;28;20197;-64
2021/10/02 06:52:03;;;;;;;8.80;6.00;;;17.30;99.90;;;;;;5072044;28;20279;-65
2021/10/02 06:54:30;;;;;;;7.07;4.87;;;17.20;99.90;;;;;;5071640;28;20614;-64
2021/10/02 06:56:56;;;;;;;8.47;4.50;;;17.10;99.90;;;;;;5071727;28;20204;-64
2021/10/02 06:59:25;;;;;;;7.37;4.77;;;17.00;99.90;;;;;;5071481;28;20220;-64
2021/10/02 07:01:52;;;;;;;7.67;5.47;;;16.90;99.90;;;;;;5071607;28;20204;-64
2021/10/02 07:04:19;;;;;;;15.13;11.30;;;16.80;99.90;;;;;;5071731;28;20252;-64
2021/10/02 07:06:46;;;;;;;9.53;7.03;;;16.70;99.90;;;;;;5074687;28;20226;-64
2021/10/02 07:09:14;;;;;;;7.17;6.13;;;16.60;99.90;;;;;;5075694;28;20262;-64
2021/10/02 07:11:40;;;;;;;8.17;5.40;;;16.60;99.90;;;;;;5075368;28;20205;-64
2021/10/02 07:14:07;;;;;;;10.23;5.63;;;16.70;99.90;;;;;;5075273;28;20658;-64
2021/10/02 07:16:33;;;;;;;6.83;5.60;;;16.90;99.90;;;;;;5075054;28;20213;-64
2021/10/02 07:19:01;;;;;;;9.37;5.20;;;17.20;99.90;;;;;;5075382;28;20258;-63
2021/10/02 07:21:28;;;;;;;6.53;4.57;;;17.50;99.90;;;;;;5075319;28;20300;-63
2021/10/02 07:23:54;;;;;;;4.80;4.27;;;17.80;99.90;;;;;;5075033;28;20229;-64
2021/10/02 07:26:22;;;;;;;8.00;4.77;;;17.90;99.90;;;;;;5075334;28;20228;-64
2021/10/02 07:28:49;;;;;;;6.63;5.20;;;18.10;99.90;;;;;;5075315;28;20259;-64
2021/10/02 07:31:16;;;;;;;6.15;4.80;;;18.30;99.90;;;;;;5075329;28;20231;-64
2021/10/02 07:33:43;;;;;;;6.10;4.93;;;18.50;99.90;;;;;;5074842;28;20220;-64
2021/10/02 07:36:10;;;;;;;6.93;4.93;;;18.50;99.90;;;;;;5074788;28;20665;-64
2021/10/02 07:38:37;;;;;;;7.33;5.30;;;18.40;99.90;;;;;;5074271;28;20677;-64
2021/10/02 07:41:04;;;;;;;5.78;4.63;;;18.40;99.90;;;;;;5074164;28;20209;-59
2021/10/02 07:43:33;;;;;;;6.77;4.87;;;18.50;99.90;;;;;;5073926;28;20224;-64
2021/10/02 07:46:00;;;;;;;8.07;5.45;;;18.50;99.90;;;;;;5073959;28;20225;-64
2021/10/02 07:48:27;;;;;;;5.55;4.35;;;18.30;99.90;;;;;;5074065;28;20231;-63
2021/10/02 07:50:55;;;;;;;8.13;4.47;;;18.10;99.90;;;;;;5074190;28;20280;-64
2021/10/02 07:53:24;;;;;;;8.20;5.22;;;18.00;99.90;;;;;;5074557;28;20229;-64
2021/10/02 07:55:52;;;;;;;5.40;4.77;;;17.90;99.90;;;;;;5074772;28;20243;-63
2021/10/02 07:58:21;;;;;;;6.43;4.93;;;17.80;99.90;;;;;;5074723;28;20270;-62
2021/10/02 08:00:50;;;;;;;8.33;4.73;;;17.70;99.90;;;;;;5074740;28;20287;-63
2021/10/02 08:03:19;;;;;;;5.63;4.50;;;17.70;99.90;;;;;;5074153;28;20229;-63
2021/10/02 08:05:47;;;;;;;5.30;4.32;;;17.70;99.90;;;;;;5073774;28;20312;-63
2021/10/02 08:08:16;;;;;;;6.32;4.80;;;17.60;99.90;;;;;;5073746;28;20200;-64
2021/10/02 08:10:43;;;;;;;9.13;4.90;;;17.50;99.90;;;;;;5073769;28;20208;-65
2021/10/02 08:13:12;;;;;;;7.18;5.07;;;17.60;99.90;;;;;;5073640;28;20676;-66
2021/10/02 08:15:39;;;;;;;8.48;4.47;;;17.80;99.90;;;;;;5073440;28;20240;-64
2021/10/02 08:18:09;;;;;;;5.87;4.20;;;17.90;99.90;;;;;;5072655;28;20242;-65
2021/10/02 08:20:36;;;;;;;8.30;5.10;;;17.80;99.90;;;;;;5073588;28;20211;-64
2021/10/02 08:23:04;;;;;;;7.57;4.77;;;17.90;99.90;;;;;;5073372;28;20209;-64
2021/10/02 08:25:35;;;;;;;11.43;5.03;;;18.00;99.90;;;;;;5073521;28;20618;-64
2021/10/02 08:28:04;;;;;;;6.13;4.57;;;18.10;99.90;;;;;;5073996;28;20209;-65
2021/10/02 08:30:32;;;;;;;6.90;4.35;;;18.20;99.90;;;;;;5073725;28;20212;-65
2021/10/02 08:32:59;;;;;;;5.88;4.20;;;18.30;99.90;;;;;;5073427;28;20204;-65
2021/10/02 08:35:27;;;;;;;6.03;3.78;;;18.40;99.90;;;;;;5073176;28;20258;-65
2021/10/02 08:37:54;;;;;;;3.97;3.58;;;18.50;99.90;;;;;;5073028;28;20211;-65
2021/10/02 08:40:21;;;;;;;5.22;3.47;;;18.60;99.90;;;;;;5073316;28;20201;-65
2021/10/02 08:42:48;;;;;;;5.05;3.50;;;18.70;99.90;;;;;;5073379;28;20335;-65
2021/10/02 08:45:15;;;;;;;3.30;2.95;;;19.00;99.90;;;;;;5072826;28;20233;-65
2021/10/02 08:47:46;;;;;;;3.60;2.70;;;19.10;99.90;;;;;;5072734;28;20209;-65
2021/10/02 08:50:17;;;;;;;5.25;3.05;;;19.20;99.90;;;;;;5072836;28;20213;-65
2021/10/02 08:52:46;;;;;;;3.13;2.30;;;19.40;99.90;;;;;;5073222;28;20514;-65
2021/10/02 08:55:13;;;;;;;3.38;2.55;;;19.60;99.90;;;;;;5073268;28;20233;-63
2021/10/02 08:57:43;;;;;;;2.72;2.20;;;19.80;99.90;;;;;;5072647;28;20201;-61
2021/10/02 09:00:13;;;;;;;4.47;1.95;;;20.10;99.90;;;;;;5072969;28;20204;-64
2021/10/02 09:02:39;;;;;;;3.67;2.28;;;20.20;99.90;;;;;;5072245;28;20211;-64
2021/10/02 09:05:09;;;;;;;3.65;2.03;;;20.40;99.90;;;;;;5072468;28;20225;-64
2021/10/02 09:07:35;;;;;;;3.20;2.35;;;20.60;99.90;;;;;;5073029;28;20302;-64
2021/10/02 09:10:08;;;;;;;2.65;2.15;;;20.70;99.90;;;;;;5072435;28;20216;-64
2021/10/02 09:12:36;;;;;;;3.47;2.17;;;20.80;99.90;;;;;;5071956;28;20208;-64
2021/10/02 09:15:03;;;;;;;2.83;2.03;;;20.80;99.90;;;;;;5071844;28;20228;-64
2021/10/02 09:17:30;;;;;;;3.28;2.15;;;20.90;99.90;;;;;;5071705;28;20247;-64
2021/10/02 09:19:57;;;;;;;2.80;2.22;;;21.00;99.90;;;;;;5071937;28;20208;-64
2021/10/02 09:22:24;;;;;;;1.80;1.60;;;21.10;99.90;;;;;;5071995;28;20205;-63
2021/10/02 09:24:52;;;;;;;3.67;1.52;;;21.20;99.90;;;;;;5071497;28;20239;-64
2021/10/02 09:27:22;;;;;;;3.15;1.60;;;21.30;99.70;;;;;;5071904;28;20233;-64
2021/10/02 09:29:51;;;;;;;2.03;1.60;;;21.40;98.70;;;;;;5071500;28;20212;-64
2021/10/02 09:32:20;;;;;;;2.20;1.80;;;21.50;98.50;;;;;;5072334;28;20212;-64
2021/10/02 09:34:49;;;;;;;4.20;1.35;;;21.50;97.30;;;;;;5072134;28;20235;-64
2021/10/02 09:37:21;;;;;;;3.55;1.70;;;21.60;96.10;;;;;;5072161;28;20205;-63
2021/10/02 09:39:49;;;;;;;2.53;1.50;;;21.60;95.90;;;;;;5071874;28;20213;-64
2021/10/02 09:42:23;;;;;;;2.42;1.45;;;21.70;95.40;;;;;;5071614;28;20695;-64
2021/10/02 09:44:50;;;;;;;3.47;1.48;;;21.70;94.80;;;;;;5071884;28;20453;-64
2021/10/02 09:47:18;;;;;;;3.38;1.58;;;21.80;94.80;;;;;;5071659;28;20723;-64
2021/10/02 09:49:46;;;;;;;2.15;1.77;;;21.90;94.20;;;;;;5072446;28;20201;-64
2021/10/02 09:52:34;;;;;;;1.85;1.35;;;21.90;92.50;;;;;;5072545;28;20204;-64
2021/10/02 09:55:13;;;;;;;1.88;1.40;;;22.00;92.90;;;;;;5073023;28;20289;-64
2021/10/02 09:57:44;;;;;;;5.65;1.92;;;22.10;92.00;;;;;;5072872;28;20657;-64
2021/10/02 10:00:13;;;;;;;2.72;1.73;;;22.10;92.50;;;;;;5075009;28;20225;-63
2021/10/02 10:02:42;;;;;;;2.13;1.85;;;22.10;92.30;;;;;;5073396;28;20215;-64
2021/10/02 10:05:10;;;;;;;2.63;1.73;;;22.10;92.40;;;;;;5073002;28;20229;-63
2021/10/02 10:07:37;;;;;;;1.95;1.75;;;22.20;93.00;;;;;;5072693;28;20235;-63
2021/10/02 10:10:07;;;;;;;3.85;1.73;;;22.20;93.30;;;;;;5072876;28;20212;-63
2021/10/02 10:12:35;;;;;;;3.47;1.90;;;22.10;93.00;;;;;;5073107;28;20216;-63
2021/10/02 10:15:05;;;;;;;5.90;2.03;;;22.10;93.20;;;;;;5073435;28;20229;-63
2021/10/02 10:17:32;;;;;;;2.30;1.80;;;22.20;93.10;;;;;;5072587;28;20254;-63
2021/10/02 10:20:07;;;;;;;3.42;2.08;;;22.40;92.90;;;;;;5072836;28;20207;-63
2021/10/02 10:22:35;;;;;;;2.90;1.90;;;22.50;93.10;;;;;;5072532;28;20234;-64
2021/10/02 10:25:04;;;;;;;3.05;2.30;;;22.60;92.80;;;;;;5072356;28;20236;-64
2021/10/02 10:27:33;;;;;;;5.25;2.40;;;22.70;93.40;;;;;;5071282;28;20236;-64
2021/10/02 10:30:11;;;;;;;3.17;2.33;;;22.80;93.70;;;;;;5071216;28;20216;-64
2021/10/02 10:32:39;;;;;;;2.88;2.17;;;22.80;94.10;;;;;;5071398;28;20197;-63
2021/10/02 10:35:07;;;;;;;3.28;2.05;;;22.90;94.10;;;;;;5070994;28;20665;-61
2021/10/02 10:37:34;;;;;;;3.55;2.50;;;22.90;94.20;;;;;;5071245;28;20512;-61
2021/10/02 10:40:01;;;;;;;4.05;2.50;;;23.00;94.70;;;;;;5070781;28;20381;-61
2021/10/02 10:42:29;;;;;;;5.45;2.72;;;23.00;94.70;;;;;;5075037;28;20209;-62
2021/10/02 10:44:57;;;;;;;3.03;2.33;;;23.00;94.90;;;;;;5074637;28;20593;-61
2021/10/02 10:47:26;;;;;;;3.85;2.50;;;23.20;94.80;;;;;;5074965;28;20248;-61
2021/10/02 10:49:53;;;;;;;3.92;2.50;;;23.30;94.80;;;;;;5074777;28;20209;-62
2021/10/02 10:52:20;;;;;;;4.18;2.28;;;23.30;94.80;;;;;;5074765;28;20553;-61
2021/10/02 10:54:51;;;;;;;5.00;2.80;;;23.30;94.80;;;;;;5074640;28;20228;-61
2021/10/02 10:57:38;;;;;;;5.75;2.90;;;23.40;94.90;;;;;;5074537;28;20239;-62
2021/10/02 11:00:08;;;;;;;2.40;2.17;;;23.50;94.90;;;;;;5074861;28;20238;-62
2021/10/02 11:02:48;;;;;;;3.95;2.83;;;23.50;95.10;;;;;;5074610;28;20711;-62
2021/10/02 11:05:49;;;;;;;4.63;2.50;;;23.60;95.10;;;;;;5074394;28;20724;-62
2021/10/02 11:08:22;;;;;;;3.83;3.15;;;23.60;94.90;;;;;;5074614;28;20224;-62
2021/10/02 11:10:54;;;;;;;4.07;2.70;;;23.70;94.90;;;;;;5074398;28;20681;-62
2021/10/02 11:13:37;;;;;;;3.92;2.50;;;23.70;94.70;;;;;;5074389;28;20233;-62
2021/10/02 11:16:32;;;;;;;4.72;2.78;;;23.80;94.80;;;;;;5074220;28;20212;-62
2021/10/02 11:19:00;;;;;;;6.55;2.97;;;23.80;94.80;;;;;;5074582;28;20208;-62
2021/10/02 11:21:31;;;;;;;4.57;3.10;;;23.80;94.70;;;;;;5074785;28;20201;-62
2021/10/02 11:24:07;;;;;;;4.00;2.78;;;23.90;94.90;;;;;;5074380;28;20240;-62
2021/10/02 11:26:47;;;;;;;6.15;2.80;;;24.00;94.60;;;;;;5074299;28;20287;-63
2021/10/02 11:29:33;;;;;;;2.75;2.15;;;24.00;94.50;;;;;;5074154;28;20220;-61
2021/10/02 11:32:29;;;;;;;4.22;2.45;;;24.00;94.60;;;;;;5074246;28;20216;-62
2021/10/02 11:35:16;;;;;;;5.18;3.65;;;23.90;93.70;;;;;;5058135;28;20526;-61
2021/10/02 11:37:46;;;;;;;4.97;2.55;;;23.80;94.00;;;;;;5054223;28;20205;-61
2021/10/02 11:40:47;;;;;;;3.47;2.78;;;23.80;94.10;;;;;;5053619;28;20202;-61
2021/10/02 11:43:32;;;;;;;6.40;2.85;;;23.80;94.40;;;;;;5053490;28;20665;-61
2021/10/02 11:46:08;;;;;;;6.30;2.45;;;23.80;94.40;;;;;;5053695;28;20209;-61
2021/10/02 11:48:41;;;;;;;3.40;2.78;;;23.70;93.80;;;;;;5053949;28;20245;-60
2021/10/02 11:51:25;;;;;;;3.85;2.58;;;23.70;94.60;;;;;;5053782;28;20209;-62
2021/10/02 11:53:54;;;;;;;2.75;2.55;;;23.70;94.50;;;;;;5052592;28;20279;-60
2021/10/02 11:56:23;;;;;;;3.15;2.50;;;23.80;94.00;;;;;;5053217;28;20581;-60
2021/10/02 11:58:50;;;;;;;3.97;2.60;;;23.80;94.10;;;;;;5053526;28;20213;-61
2021/10/02 12:01:20;;;;;;;3.65;2.53;;;23.90;93.50;;;;;;5053534;28;20265;-61
2021/10/02 12:03:47;;;;;;;4.68;2.95;;;23.90;93.70;;;;;;5053183;28;20230;-63
2021/10/02 12:06:21;;;;;;;2.78;2.53;;;24.10;93.60;;;;;;5053407;28;20213;-63
2021/10/02 12:08:50;;;;;;;5.28;2.88;;;24.40;93.70;;;;;;5053369;28;20241;-64
2021/10/02 12:11:18;;;;;;;9.25;5.78;;;24.70;93.20;;;;;;5053697;28;20649;-63
2021/10/02 12:13:49;;;;;;;3.60;2.58;;;25.00;93.00;;;;;;5053640;28;20666;-63
2021/10/02 12:16:18;;;;;;;4.45;2.58;;;25.40;92.00;;;;;;5053643;28;20201;-64
2021/10/02 12:18:48;;;;;;;3.80;2.67;;;25.60;91.70;;;;;;5053107;28;20213;-63
2021/10/02 12:21:25;;;;;;;6.53;2.92;;;25.90;91.60;;;;;;5054016;28;20213;-64
2021/10/02 12:23:56;;;;;;;4.22;3.25;;;26.20;91.40;;;;;;5071422;22;20918;-62
2021/10/02 12:26:24;;;;;;;3.28;2.72;;;26.40;91.20;;;;;;5072912;28;20672;-60
2021/10/02 12:28:57;;;;;;;5.45;2.75;;;26.50;91.00;;;;;;5072950;28;20201;-60
2021/10/02 12:31:24;;;;;;;5.38;2.70;;;26.60;90.70;;;;;;5073109;28;20220;-61
2021/10/02 12:33:51;;;;;;;3.85;2.97;;;26.50;90.20;;;;;;5072722;28;20233;-61
2021/10/02 12:36:37;;;;;;;3.42;2.83;;;26.50;89.80;;;;;;5072835;28;20262;-61
2021/10/02 12:39:05;;;;;;;2.95;2.67;;;26.40;90.10;;;;;;5072648;28;20200;-61
2021/10/02 12:41:38;;;;;;;4.38;2.88;;;26.40;90.10;;;;;;5072797;28;20566;-62
2021/10/02 12:44:06;;;;;;;2.58;2.38;;;26.30;90.20;;;;;;5072471;28;20773;-62
2021/10/02 12:46:33;;;;;;;3.47;2.70;;;26.10;90.00;;;;;;5072193;28;20209;-61
2021/10/02 12:48:59;;;;;;;3.92;2.50;;;25.90;90.30;;;;;;5069898;28;20205;-62
2021/10/02 12:51:26;;;;;;;3.38;2.50;;;25.90;90.40;;;;;;5051668;28;20259;-62
2021/10/02 12:53:53;;;;;;;5.47;2.60;;;25.90;90.40;;;;;;5051936;28;20229;-57
2021/10/02 12:56:21;;;;;;;3.65;2.67;;;25.90;90.00;;;;;;5052380;28;20680;-58
2021/10/02 12:58:48;;;;;;;4.35;2.58;;;26.00;90.10;;;;;;5052309;28;20202;-57
2021/10/02 13:01:14;;;;;;;3.50;2.90;;;26.00;89.80;;;;;;5052208;28;20208;-58
2021/10/02 13:03:42;;;;;;;5.82;2.75;;;26.10;89.80;;;;;;5051843;28;20271;-58
2021/10/02 13:06:09;;;;;;;3.38;2.72;;;26.10;89.80;;;;;;5052171;28;20582;-57
2021/10/02 13:08:36;;;;;;;3.17;2.55;;;26.00;90.00;;;;;;5051818;28;20421;-58
2021/10/02 13:11:03;;;;;;;2.83;2.47;;;25.80;90.20;;;;;;5052283;28;20648;-57
2021/10/02 13:13:31;;;;;;;4.25;2.80;;;25.70;90.10;;;;;;5051908;28;20228;-57
2021/10/02 13:15:59;;;;;;;6.68;2.70;;;25.60;90.50;;;;;;5052022;28;20206;-58
2021/10/02 13:18:27;;;;;;;2.78;2.40;;;25.40;90.50;;;;;;5051985;28;20202;-57
2021/10/02 13:20:57;;;;;;;7.18;2.90;;;25.40;90.50;;;;;;5052088;28;20632;-57
2021/10/02 13:23:31;;;;;;;6.68;2.80;;;25.30;90.80;;;;;;5051890;28;20241;-57
2021/10/02 13:26:00;;;;;;;4.72;2.90;;;25.30;91.10;;;;;;5051657;28;20263;-58
2021/10/02 13:28:28;;;;;;;4.35;2.90;;;25.40;91.30;;;;;;5051572;28;20248;-57
2021/10/02 13:30:58;;;;;;;3.70;2.63;;;25.40;91.30;;;;;;5051679;28;20216;-58
2021/10/02 13:33:25;;;;;;;5.82;3.00;;;25.40;91.30;;;;;;5051277;28;20536;-58
2021/10/02 13:35:54;;;;;;;3.88;2.92;;;25.40;91.10;;;;;;5051740;28;20209;-58
2021/10/02 13:38:32;;;;;;;3.75;2.80;;;25.50;91.30;;;;;;5051583;28;20202;-58
2021/10/02 13:41:01;;;;;;;3.97;2.90;;;25.70;91.10;;;;;;5051703;28;20205;-59
2021/10/02 13:43:28;;;;;;;4.43;2.78;;;25.90;90.60;;;;;;5051285;28;20201;-57
2021/10/02 13:45:57;;;;;;;3.15;2.65;;;26.00;90.30;;;;;;5051481;28;20209;-58